sensor_id;sensor_type;location;lat;lon;timestamp;P1;durP1;ratioP1;P2;durP2;ratioP2
56511;SDS011;42408;53.238;5.686;2023-08-07T00:00:11;9.53;;;3.33;;
56511;SDS011;42408;53.238;5.686;2023-08-07T00:02:37;10.60;;;3.40;;
56511;SDS011;42408;53.238;5.686;2023-08-07T00:05:03;9.57;;;2.60;;
56511;SDS011;42408;53.238;5.686;2023-08-07T00:07:30;9.63;;;2.70;;
56511;SDS011;42408;53.238;5.686;2023-08-07T00:09:55;9.43;;;2.87;;
56511;SDS011;42408;53.238;5.686;2023-08-07T00:12:21;9.13;;;3.10;;
56511;SDS011;42408;53.238;5.686;2023-08-07T00:14:47;7.43;;;2.53;;
56511;SDS011;42408;53.238;5.686;2023-08-07T00:17:15;12.65;;;2.80;;
56511;SDS011;42408;53.238;5.686;2023-08-07T00:19:41;12.60;;;3.75;;
56511;SDS011;42408;53.238;5.686;2023-08-07T00:22:07;13.53;;;3.73;;
56511;SDS011;42408;53.238;5.686;2023-08-07T00:24:32;8.37;;;3.37;;
56511;SDS011;42408;53.238;5.686;2023-08-07T00:26:58;11.13;;;3.40;;
56511;SDS011;42408;53.238;5.686;2023-08-07T00:29:24;12.67;;;3.43;;
56511;SDS011;42408;53.238;5.686;2023-08-07T00:31:49;9.80;;;3.50;;
56511;SDS011;42408;53.238;5.686;2023-08-07T00:34:15;9.37;;;3.30;;
56511;SDS011;42408;53.238;5.686;2023-08-07T00:36:40;11.17;;;3.33;;
56511;SDS011;42408;53.238;5.686;2023-08-07T00:39:06;9.67;;;2.63;;
56511;SDS011;42408;53.238;5.686;2023-08-07T00:43:59;12.30;;;3.30;;
56511;SDS011;42408;53.238;5.686;2023-08-07T00:46:26;12.27;;;3.33;;
56511;SDS011;42408;53.238;5.686;2023-08-07T00:48:52;12.20;;;3.60;;
56511;SDS011;42408;53.238;5.686;2023-08-07T00:51:19;9.20;;;3.22;;
56511;SDS011;42408;53.238;5.686;2023-08-07T00:53:45;8.55;;;3.30;;
56511;SDS011;42408;53.238;5.686;2023-08-07T00:56:13;8.20;;;2.92;;
56511;SDS011;42408;53.238;5.686;2023-08-07T00:58:39;10.02;;;3.17;;
56511;SDS011;42408;53.238;5.686;2023-08-07T01:01:05;12.87;;;3.53;;
56511;SDS011;42408;53.238;5.686;2023-08-07T01:03:31;11.65;;;3.70;;
56511;SDS011;42408;53.238;5.686;2023-08-07T01:05:57;13.07;;;3.45;;
56511;SDS011;42408;53.238;5.686;2023-08-07T01:08:23;9.53;;;3.00;;
56511;SDS011;42408;53.238;5.686;2023-08-07T01:16:37;9.20;;;3.10;;
56511;SDS011;42408;53.238;5.686;2023-08-07T01:19:08;11.95;;;3.33;;
56511;SDS011;42408;53.238;5.686;2023-08-07T01:24:38;10.77;;;2.95;;
56511;SDS011;42408;53.238;5.686;2023-08-07T01:29:53;10.02;;;3.10;;
56511;SDS011;42408;53.238;5.686;2023-08-07T01:34:51;9.52;;;2.95;;
56511;SDS011;42408;53.238;5.686;2023-08-07T01:37:19;11.23;;;3.50;;
56511;SDS011;42408;53.238;5.686;2023-08-07T01:39:46;9.98;;;3.17;;
56511;SDS011;42408;53.238;5.686;2023-08-07T01:42:14;12.30;;;3.28;;
56511;SDS011;42408;53.238;5.686;2023-08-07T01:44:40;11.23;;;3.63;;
56511;SDS011;42408;53.238;5.686;2023-08-07T01:47:07;11.95;;;3.63;;
56511;SDS011;42408;53.238;5.686;2023-08-07T01:49:32;12.77;;;3.60;;
56511;SDS011;42408;53.238;5.686;2023-08-07T01:51:58;11.67;;;3.40;;
56511;SDS011;42408;53.238;5.686;2023-08-07T01:54:24;15.57;;;4.00;;
56511;SDS011;42408;53.238;5.686;2023-08-07T01:56:49;10.83;;;2.97;;
56511;SDS011;42408;53.238;5.686;2023-08-07T01:59:15;15.20;;;3.73;;
56511;SDS011;42408;53.238;5.686;2023-08-07T02:01:41;13.73;;;3.77;;
56511;SDS011;42408;53.238;5.686;2023-08-07T02:04:06;10.60;;;3.50;;
56511;SDS011;42408;53.238;5.686;2023-08-07T02:06:32;15.47;;;3.93;;
56511;SDS011;42408;53.238;5.686;2023-08-07T02:08:57;12.40;;;4.07;;
56511;SDS011;42408;53.238;5.686;2023-08-07T02:11:23;10.37;;;3.23;;
56511;SDS011;42408;53.238;5.686;2023-08-07T02:13:49;11.47;;;4.27;;
56511;SDS011;42408;53.238;5.686;2023-08-07T02:16:14;13.50;;;3.57;;
56511;SDS011;42408;53.238;5.686;2023-08-07T02:18:40;9.33;;;3.67;;
56511;SDS011;42408;53.238;5.686;2023-08-07T02:21:06;9.97;;;3.10;;
56511;SDS011;42408;53.238;5.686;2023-08-07T02:23:31;8.63;;;3.53;;
56511;SDS011;42408;53.238;5.686;2023-08-07T02:25:57;10.40;;;3.60;;
56511;SDS011;42408;53.238;5.686;2023-08-07T02:28:22;10.13;;;3.47;;
56511;SDS011;42408;53.238;5.686;2023-08-07T02:30:48;17.60;;;5.53;;
56511;SDS011;42408;53.238;5.686;2023-08-07T02:33:16;13.18;;;4.53;;
56511;SDS011;42408;53.238;5.686;2023-08-07T02:35:41;12.87;;;5.00;;
56511;SDS011;42408;53.238;5.686;2023-08-07T02:38:07;19.60;;;5.70;;
56511;SDS011;42408;53.238;5.686;2023-08-07T02:40:33;21.60;;;5.53;;
56511;SDS011;42408;53.238;5.686;2023-08-07T02:42:59;19.65;;;5.75;;
56511;SDS011;42408;53.238;5.686;2023-08-07T02:45:25;12.90;;;5.33;;
56511;SDS011;42408;53.238;5.686;2023-08-07T02:47:50;22.83;;;5.47;;
56511;SDS011;42408;53.238;5.686;2023-08-07T02:50:16;12.33;;;4.60;;
56511;SDS011;42408;53.238;5.686;2023-08-07T02:52:41;16.30;;;5.00;;
56511;SDS011;42408;53.238;5.686;2023-08-07T02:55:07;15.87;;;4.73;;
56511;SDS011;42408;53.238;5.686;2023-08-07T02:57:33;13.63;;;4.30;;
56511;SDS011;42408;53.238;5.686;2023-08-07T02:59:59;15.88;;;4.78;;
56511;SDS011;42408;53.238;5.686;2023-08-07T03:02:25;17.10;;;5.17;;
56511;SDS011;42408;53.238;5.686;2023-08-07T03:04:50;13.50;;;4.30;;
56511;SDS011;42408;53.238;5.686;2023-08-07T03:07:16;12.43;;;4.60;;
56511;SDS011;42408;53.238;5.686;2023-08-07T03:09:44;10.97;;;3.83;;
56511;SDS011;42408;53.238;5.686;2023-08-07T03:12:11;10.75;;;3.88;;
56511;SDS011;42408;53.238;5.686;2023-08-07T03:14:37;13.53;;;4.07;;
56511;SDS011;42408;53.238;5.686;2023-08-07T03:17:03;10.07;;;4.00;;
56511;SDS011;42408;53.238;5.686;2023-08-07T03:19:28;10.57;;;4.23;;
56511;SDS011;42408;53.238;5.686;2023-08-07T03:21:54;11.13;;;3.77;;
56511;SDS011;42408;53.238;5.686;2023-08-07T03:24:20;14.13;;;3.30;;
56511;SDS011;42408;53.238;5.686;2023-08-07T03:26:45;8.67;;;3.23;;
56511;SDS011;42408;53.238;5.686;2023-08-07T03:31:38;9.30;;;3.90;;
56511;SDS011;42408;53.238;5.686;2023-08-07T03:34:03;10.50;;;3.50;;
56511;SDS011;42408;53.238;5.686;2023-08-07T03:36:29;11.17;;;3.77;;
56511;SDS011;42408;53.238;5.686;2023-08-07T03:38:55;17.23;;;4.63;;
56511;SDS011;42408;53.238;5.686;2023-08-07T03:41:20;19.33;;;5.10;;
56511;SDS011;42408;53.238;5.686;2023-08-07T03:43:46;16.53;;;5.67;;
56511;SDS011;42408;53.238;5.686;2023-08-07T03:46:11;21.10;;;5.70;;
56511;SDS011;42408;53.238;5.686;2023-08-07T03:48:38;27.70;;;6.45;;
56511;SDS011;42408;53.238;5.686;2023-08-07T03:51:06;23.07;;;5.83;;
56511;SDS011;42408;53.238;5.686;2023-08-07T03:53:36;9.95;;;3.58;;
56511;SDS011;42408;53.238;5.686;2023-08-07T03:56:02;11.93;;;3.90;;
56511;SDS011;42408;53.238;5.686;2023-08-07T03:58:28;18.13;;;5.57;;
56511;SDS011;42408;53.238;5.686;2023-08-07T04:00:55;11.30;;;4.57;;
56511;SDS011;42408;53.238;5.686;2023-08-07T04:03:20;11.13;;;4.40;;
56511;SDS011;42408;53.238;5.686;2023-08-07T04:05:46;10.88;;;3.65;;
56511;SDS011;42408;53.238;5.686;2023-08-07T04:08:16;16.88;;;4.10;;
56511;SDS011;42408;53.238;5.686;2023-08-07T04:10:42;14.10;;;5.10;;
56511;SDS011;42408;53.238;5.686;2023-08-07T04:13:07;11.07;;;4.20;;
56511;SDS011;42408;53.238;5.686;2023-08-07T04:15:33;11.27;;;4.30;;
56511;SDS011;42408;53.238;5.686;2023-08-07T04:17:59;8.70;;;3.43;;
56511;SDS011;42408;53.238;5.686;2023-08-07T04:20:24;8.60;;;3.13;;
56511;SDS011;42408;53.238;5.686;2023-08-07T04:22:50;10.53;;;3.73;;
56511;SDS011;42408;53.238;5.686;2023-08-07T04:25:16;12.83;;;4.50;;
56511;SDS011;42408;53.238;5.686;2023-08-07T04:27:41;13.03;;;4.90;;
56511;SDS011;42408;53.238;5.686;2023-08-07T04:30:07;13.60;;;4.90;;
56511;SDS011;42408;53.238;5.686;2023-08-07T04:32:33;17.33;;;4.83;;
56511;SDS011;42408;53.238;5.686;2023-08-07T04:34:59;12.77;;;4.90;;
56511;SDS011;42408;53.238;5.686;2023-08-07T04:37:24;18.40;;;5.53;;
56511;SDS011;42408;53.238;5.686;2023-08-07T04:39:50;18.10;;;5.30;;
56511;SDS011;42408;53.238;5.686;2023-08-07T04:42:16;15.63;;;5.23;;
56511;SDS011;42408;53.238;5.686;2023-08-07T04:44:41;18.07;;;5.70;;
56511;SDS011;42408;53.238;5.686;2023-08-07T04:47:07;17.20;;;5.87;;
56511;SDS011;42408;53.238;5.686;2023-08-07T04:49:33;20.50;;;5.97;;
56511;SDS011;42408;53.238;5.686;2023-08-07T04:51:58;13.43;;;4.60;;
56511;SDS011;42408;53.238;5.686;2023-08-07T04:54:24;13.97;;;5.40;;
56511;SDS011;42408;53.238;5.686;2023-08-07T04:56:50;13.90;;;4.70;;
56511;SDS011;42408;53.238;5.686;2023-08-07T04:59:15;15.90;;;4.83;;
56511;SDS011;42408;53.238;5.686;2023-08-07T05:01:41;12.97;;;4.40;;
56511;SDS011;42408;53.238;5.686;2023-08-07T05:04:06;13.53;;;4.00;;
56511;SDS011;42408;53.238;5.686;2023-08-07T05:06:32;14.00;;;4.10;;
56511;SDS011;42408;53.238;5.686;2023-08-07T05:08:58;12.63;;;4.77;;
56511;SDS011;42408;53.238;5.686;2023-08-07T05:11:24;12.57;;;3.87;;
56511;SDS011;42408;53.238;5.686;2023-08-07T05:13:49;10.00;;;3.40;;
56511;SDS011;42408;53.238;5.686;2023-08-07T05:16:15;13.67;;;4.10;;
56511;SDS011;42408;53.238;5.686;2023-08-07T05:18:42;13.15;;;4.20;;
56511;SDS011;42408;53.238;5.686;2023-08-07T05:21:08;15.87;;;4.60;;
56511;SDS011;42408;53.238;5.686;2023-08-07T05:23:34;16.60;;;4.80;;
56511;SDS011;42408;53.238;5.686;2023-08-07T05:25:59;17.73;;;5.03;;
56511;SDS011;42408;53.238;5.686;2023-08-07T05:28:25;14.73;;;4.23;;
56511;SDS011;42408;53.238;5.686;2023-08-07T05:30:50;18.80;;;4.60;;
56511;SDS011;42408;53.238;5.686;2023-08-07T05:33:16;15.37;;;3.90;;
56511;SDS011;42408;53.238;5.686;2023-08-07T05:35:42;8.83;;;3.53;;
56511;SDS011;42408;53.238;5.686;2023-08-07T05:38:07;13.43;;;4.50;;
56511;SDS011;42408;53.238;5.686;2023-08-07T05:40:33;11.40;;;4.33;;
56511;SDS011;42408;53.238;5.686;2023-08-07T05:43:01;14.05;;;4.07;;
56511;SDS011;42408;53.238;5.686;2023-08-07T05:45:27;13.53;;;4.13;;
56511;SDS011;42408;53.238;5.686;2023-08-07T05:47:53;12.47;;;4.03;;
56511;SDS011;42408;53.238;5.686;2023-08-07T05:50:18;9.63;;;3.10;;
56511;SDS011;42408;53.238;5.686;2023-08-07T05:52:44;14.13;;;4.17;;
56511;SDS011;42408;53.238;5.686;2023-08-07T05:55:10;10.68;;;3.95;;
56511;SDS011;42408;53.238;5.686;2023-08-07T05:57:36;10.03;;;3.73;;
56511;SDS011;42408;53.238;5.686;2023-08-07T06:00:02;8.53;;;3.50;;
56511;SDS011;42408;53.238;5.686;2023-08-07T06:02:28;9.20;;;3.65;;
56511;SDS011;42408;53.238;5.686;2023-08-07T06:04:53;12.47;;;3.70;;
56511;SDS011;42408;53.238;5.686;2023-08-07T06:07:19;7.77;;;3.10;;
56511;SDS011;42408;53.238;5.686;2023-08-07T06:09:45;12.50;;;3.83;;
56511;SDS011;42408;53.238;5.686;2023-08-07T06:12:11;12.52;;;3.72;;
56511;SDS011;42408;53.238;5.686;2023-08-07T06:14:37;9.50;;;3.45;;
56511;SDS011;42408;53.238;5.686;2023-08-07T06:17:03;10.75;;;3.65;;
56511;SDS011;42408;53.238;5.686;2023-08-07T06:19:29;10.80;;;3.87;;
56511;SDS011;42408;53.238;5.686;2023-08-07T06:21:55;9.43;;;3.43;;
56511;SDS011;42408;53.238;5.686;2023-08-07T06:24:21;13.05;;;3.72;;
56511;SDS011;42408;53.238;5.686;2023-08-07T06:26:46;11.87;;;3.60;;
56511;SDS011;42408;53.238;5.686;2023-08-07T06:29:12;10.17;;;3.10;;
56511;SDS011;42408;53.238;5.686;2023-08-07T06:31:38;7.20;;;3.00;;
56511;SDS011;42408;53.238;5.686;2023-08-07T06:34:03;13.77;;;3.37;;
56511;SDS011;42408;53.238;5.686;2023-08-07T06:36:29;7.97;;;3.17;;
56511;SDS011;42408;53.238;5.686;2023-08-07T06:38:55;9.60;;;3.47;;
56511;SDS011;42408;53.238;5.686;2023-08-07T06:41:20;15.30;;;3.67;;
56511;SDS011;42408;53.238;5.686;2023-08-07T06:43:46;15.47;;;4.07;;
56511;SDS011;42408;53.238;5.686;2023-08-07T06:46:12;16.27;;;4.33;;
56511;SDS011;42408;53.238;5.686;2023-08-07T06:48:37;12.40;;;4.50;;
56511;SDS011;42408;53.238;5.686;2023-08-07T06:51:03;10.13;;;3.50;;
56511;SDS011;42408;53.238;5.686;2023-08-07T06:53:29;7.70;;;3.30;;
56511;SDS011;42408;53.238;5.686;2023-08-07T06:55:54;9.53;;;3.20;;
56511;SDS011;42408;53.238;5.686;2023-08-07T06:58:20;7.07;;;2.90;;
56511;SDS011;42408;53.238;5.686;2023-08-07T07:00:46;8.03;;;3.20;;
56511;SDS011;42408;53.238;5.686;2023-08-07T07:03:12;9.47;;;3.00;;
56511;SDS011;42408;53.238;5.686;2023-08-07T07:05:37;8.20;;;3.03;;
56511;SDS011;42408;53.238;5.686;2023-08-07T07:08:03;9.65;;;3.47;;
56511;SDS011;42408;53.238;5.686;2023-08-07T07:10:29;11.35;;;3.38;;
56511;SDS011;42408;53.238;5.686;2023-08-07T07:12:55;9.67;;;3.30;;
56511;SDS011;42408;53.238;5.686;2023-08-07T07:15:20;8.33;;;3.30;;
56511;SDS011;42408;53.238;5.686;2023-08-07T07:17:46;11.40;;;3.83;;
56511;SDS011;42408;53.238;5.686;2023-08-07T07:20:12;8.70;;;2.87;;
56511;SDS011;42408;53.238;5.686;2023-08-07T07:22:38;9.63;;;2.55;;
56511;SDS011;42408;53.238;5.686;2023-08-07T07:25:03;8.60;;;2.50;;
56511;SDS011;42408;53.238;5.686;2023-08-07T07:27:30;8.10;;;3.08;;
56511;SDS011;42408;53.238;5.686;2023-08-07T07:29:56;5.63;;;2.93;;
56511;SDS011;42408;53.238;5.686;2023-08-07T07:32:21;10.20;;;3.10;;
56511;SDS011;42408;53.238;5.686;2023-08-07T07:34:47;9.40;;;4.00;;
56511;SDS011;42408;53.238;5.686;2023-08-07T07:37:13;7.03;;;3.20;;
56511;SDS011;42408;53.238;5.686;2023-08-07T07:42:06;11.65;;;3.53;;
56511;SDS011;42408;53.238;5.686;2023-08-07T07:44:32;14.40;;;4.30;;
56511;SDS011;42408;53.238;5.686;2023-08-07T07:47:00;11.70;;;3.85;;
56511;SDS011;42408;53.238;5.686;2023-08-07T07:49:26;10.03;;;3.17;;
56511;SDS011;42408;53.238;5.686;2023-08-07T07:51:51;10.03;;;3.20;;
56511;SDS011;42408;53.238;5.686;2023-08-07T07:54:17;12.77;;;3.77;;
56511;SDS011;42408;53.238;5.686;2023-08-07T07:56:43;11.87;;;3.30;;
56511;SDS011;42408;53.238;5.686;2023-08-07T07:59:08;8.13;;;3.23;;
56511;SDS011;42408;53.238;5.686;2023-08-07T08:01:34;10.00;;;2.90;;
56511;SDS011;42408;53.238;5.686;2023-08-07T08:04:00;9.50;;;3.30;;
56511;SDS011;42408;53.238;5.686;2023-08-07T08:06:26;5.53;;;2.57;;
56511;SDS011;42408;53.238;5.686;2023-08-07T08:08:52;12.40;;;3.30;;
56511;SDS011;42408;53.238;5.686;2023-08-07T08:11:17;6.23;;;2.60;;
56511;SDS011;42408;53.238;5.686;2023-08-07T08:13:43;10.97;;;3.43;;
56511;SDS011;42408;53.238;5.686;2023-08-07T08:16:08;10.17;;;3.47;;
56511;SDS011;42408;53.238;5.686;2023-08-07T08:18:34;7.80;;;3.43;;
56511;SDS011;42408;53.238;5.686;2023-08-07T08:21:00;11.17;;;3.10;;
56511;SDS011;42408;53.238;5.686;2023-08-07T08:23:26;9.03;;;2.53;;
56511;SDS011;42408;53.238;5.686;2023-08-07T08:25:51;8.07;;;3.20;;
56511;SDS011;42408;53.238;5.686;2023-08-07T08:28:17;7.13;;;2.50;;
56511;SDS011;42408;53.238;5.686;2023-08-07T08:30:43;7.65;;;2.35;;
56511;SDS011;42408;53.238;5.686;2023-08-07T08:33:09;7.47;;;1.90;;
56511;SDS011;42408;53.238;5.686;2023-08-07T08:35:37;7.13;;;2.20;;
56511;SDS011;42408;53.238;5.686;2023-08-07T08:38:03;9.80;;;2.70;;
56511;SDS011;42408;53.238;5.686;2023-08-07T08:40:30;6.33;;;2.53;;
56511;SDS011;42408;53.238;5.686;2023-08-07T08:42:56;6.82;;;2.50;;
56511;SDS011;42408;53.238;5.686;2023-08-07T08:45:25;6.38;;;2.70;;
56511;SDS011;42408;53.238;5.686;2023-08-07T08:52:45;11.30;;;2.92;;
56511;SDS011;42408;53.238;5.686;2023-08-07T08:55:12;14.17;;;3.40;;
56511;SDS011;42408;53.238;5.686;2023-08-07T08:57:39;11.02;;;3.75;;
56511;SDS011;42408;53.238;5.686;2023-08-07T09:00:08;7.93;;;2.80;;
56511;SDS011;42408;53.238;5.686;2023-08-07T09:02:45;9.25;;;2.88;;
56511;SDS011;42408;53.238;5.686;2023-08-07T09:05:13;8.13;;;2.80;;
56511;SDS011;42408;53.238;5.686;2023-08-07T09:07:40;9.63;;;3.08;;
56511;SDS011;42408;53.238;5.686;2023-08-07T09:10:07;7.60;;;3.05;;
56511;SDS011;42408;53.238;5.686;2023-08-07T09:12:34;9.82;;;3.00;;
56511;SDS011;42408;53.238;5.686;2023-08-07T09:15:04;8.57;;;3.05;;
56511;SDS011;42408;53.238;5.686;2023-08-07T09:17:33;9.68;;;2.50;;
56511;SDS011;42408;53.238;5.686;2023-08-07T09:20:03;7.95;;;3.03;;
56511;SDS011;42408;53.238;5.686;2023-08-07T09:22:31;6.07;;;2.53;;
56511;SDS011;42408;53.238;5.686;2023-08-07T09:24:57;10.40;;;2.57;;
56511;SDS011;42408;53.238;5.686;2023-08-07T09:27:25;7.05;;;3.38;;
56511;SDS011;42408;53.238;5.686;2023-08-07T09:29:51;7.15;;;2.75;;
56511;SDS011;42408;53.238;5.686;2023-08-07T09:32:19;9.20;;;2.85;;
56511;SDS011;42408;53.238;5.686;2023-08-07T09:34:47;8.27;;;2.97;;
56511;SDS011;42408;53.238;5.686;2023-08-07T09:37:14;10.45;;;3.15;;
56511;SDS011;42408;53.238;5.686;2023-08-07T09:39:40;9.17;;;2.80;;
56511;SDS011;42408;53.238;5.686;2023-08-07T09:42:15;11.17;;;3.20;;
56511;SDS011;42408;53.238;5.686;2023-08-07T09:44:41;8.93;;;3.08;;
56511;SDS011;42408;53.238;5.686;2023-08-07T09:47:13;10.18;;;3.47;;
56511;SDS011;42408;53.238;5.686;2023-08-07T09:49:39;11.27;;;3.25;;
56511;SDS011;42408;53.238;5.686;2023-08-07T09:52:05;8.57;;;2.92;;
56511;SDS011;42408;53.238;5.686;2023-08-07T09:54:32;9.55;;;3.00;;
56511;SDS011;42408;53.238;5.686;2023-08-07T09:56:59;7.55;;;2.85;;
56511;SDS011;42408;53.238;5.686;2023-08-07T09:59:28;10.20;;;2.97;;
56511;SDS011;42408;53.238;5.686;2023-08-07T10:01:54;6.93;;;2.63;;
56511;SDS011;42408;53.238;5.686;2023-08-07T10:04:23;7.30;;;2.47;;
56511;SDS011;42408;53.238;5.686;2023-08-07T10:06:49;9.13;;;3.10;;
56511;SDS011;42408;53.238;5.686;2023-08-07T10:11:42;9.52;;;3.05;;
56511;SDS011;42408;53.238;5.686;2023-08-07T10:14:08;5.63;;;2.38;;
56511;SDS011;42408;53.238;5.686;2023-08-07T10:16:34;8.15;;;2.55;;
56511;SDS011;42408;53.238;5.686;2023-08-07T10:19:04;7.35;;;2.35;;
56511;SDS011;42408;53.238;5.686;2023-08-07T10:21:37;8.00;;;2.58;;
56511;SDS011;42408;53.238;5.686;2023-08-07T10:24:05;6.78;;;2.47;;
56511;SDS011;42408;53.238;5.686;2023-08-07T10:26:32;12.45;;;2.92;;
56511;SDS011;42408;53.238;5.686;2023-08-07T10:28:59;8.13;;;2.30;;
56511;SDS011;42408;53.238;5.686;2023-08-07T10:31:27;6.03;;;2.22;;
56511;SDS011;42408;53.238;5.686;2023-08-07T10:33:54;5.47;;;2.63;;
56511;SDS011;42408;53.238;5.686;2023-08-07T10:36:20;6.37;;;2.43;;
56511;SDS011;42408;53.238;5.686;2023-08-07T10:38:49;6.43;;;2.30;;
56511;SDS011;42408;53.238;5.686;2023-08-07T10:41:18;7.07;;;2.38;;
56511;SDS011;42408;53.238;5.686;2023-08-07T10:43:44;12.18;;;3.13;;
56511;SDS011;42408;53.238;5.686;2023-08-07T10:46:16;7.50;;;2.60;;
56511;SDS011;42408;53.238;5.686;2023-08-07T10:48:53;7.35;;;2.22;;
56511;SDS011;42408;53.238;5.686;2023-08-07T10:51:23;9.23;;;2.50;;
56511;SDS011;42408;53.238;5.686;2023-08-07T10:53:56;11.05;;;2.50;;
56511;SDS011;42408;53.238;5.686;2023-08-07T10:56:31;6.93;;;2.90;;
56511;SDS011;42408;53.238;5.686;2023-08-07T11:03:59;5.87;;;2.50;;
56511;SDS011;42408;53.238;5.686;2023-08-07T11:06:33;8.73;;;2.95;;
56511;SDS011;42408;53.238;5.686;2023-08-07T11:08:59;8.82;;;2.88;;
56511;SDS011;42408;53.238;5.686;2023-08-07T11:11:28;8.40;;;3.53;;
56511;SDS011;42408;53.238;5.686;2023-08-07T11:14:08;9.95;;;3.20;;
56511;SDS011;42408;53.238;5.686;2023-08-07T11:16:45;7.38;;;2.80;;
56511;SDS011;42408;53.238;5.686;2023-08-07T11:19:13;8.15;;;2.80;;
56511;SDS011;42408;53.238;5.686;2023-08-07T11:21:40;6.90;;;2.65;;
56511;SDS011;42408;53.238;5.686;2023-08-07T11:24:07;9.98;;;3.00;;
56511;SDS011;42408;53.238;5.686;2023-08-07T11:26:32;7.47;;;2.90;;
56511;SDS011;42408;53.238;5.686;2023-08-07T11:28:58;9.33;;;2.77;;
56511;SDS011;42408;53.238;5.686;2023-08-07T11:31:24;7.10;;;2.97;;
56511;SDS011;42408;53.238;5.686;2023-08-07T11:36:27;7.80;;;2.95;;
56511;SDS011;42408;53.238;5.686;2023-08-07T11:38:54;8.68;;;3.35;;
56511;SDS011;42408;53.238;5.686;2023-08-07T11:41:20;10.77;;;3.05;;
56511;SDS011;42408;53.238;5.686;2023-08-07T11:43:46;8.23;;;2.50;;
56511;SDS011;42408;53.238;5.686;2023-08-07T11:46:13;7.97;;;2.53;;
56511;SDS011;42408;53.238;5.686;2023-08-07T11:48:40;4.80;;;2.20;;
56511;SDS011;42408;53.238;5.686;2023-08-07T11:53:33;5.20;;;2.47;;
56511;SDS011;42408;53.238;5.686;2023-08-07T11:56:01;4.88;;;2.47;;
56511;SDS011;42408;53.238;5.686;2023-08-07T11:58:37;9.85;;;2.85;;
56511;SDS011;42408;53.238;5.686;2023-08-07T12:01:09;6.50;;;2.37;;
56511;SDS011;42408;53.238;5.686;2023-08-07T12:03:36;7.00;;;2.63;;
56511;SDS011;42408;53.238;5.686;2023-08-07T12:06:04;8.40;;;2.50;;
56511;SDS011;42408;53.238;5.686;2023-08-07T12:08:32;7.63;;;2.17;;
56511;SDS011;42408;53.238;5.686;2023-08-07T12:11:00;7.35;;;2.55;;
56511;SDS011;42408;53.238;5.686;2023-08-07T12:13:30;8.30;;;2.50;;
56511;SDS011;42408;53.238;5.686;2023-08-07T12:15:58;9.73;;;3.03;;
56511;SDS011;42408;53.238;5.686;2023-08-07T12:18:24;7.78;;;3.05;;
56511;SDS011;42408;53.238;5.686;2023-08-07T12:21:04;10.85;;;3.30;;
56511;SDS011;42408;53.238;5.686;2023-08-07T12:23:33;7.00;;;2.58;;
56511;SDS011;42408;53.238;5.686;2023-08-07T12:25:59;6.57;;;2.95;;
56511;SDS011;42408;53.238;5.686;2023-08-07T12:28:25;9.50;;;3.05;;
56511;SDS011;42408;53.238;5.686;2023-08-07T12:30:51;10.75;;;3.05;;
56511;SDS011;42408;53.238;5.686;2023-08-07T12:33:17;8.85;;;2.83;;
56511;SDS011;42408;53.238;5.686;2023-08-07T12:35:43;11.45;;;3.33;;
56511;SDS011;42408;53.238;5.686;2023-08-07T12:38:09;10.50;;;3.27;;
56511;SDS011;42408;53.238;5.686;2023-08-07T12:40:35;11.48;;;3.83;;
56511;SDS011;42408;53.238;5.686;2023-08-07T12:43:02;10.57;;;3.42;;
56511;SDS011;42408;53.238;5.686;2023-08-07T12:45:29;8.82;;;3.20;;
56511;SDS011;42408;53.238;5.686;2023-08-07T12:47:54;9.47;;;3.60;;
56511;SDS011;42408;53.238;5.686;2023-08-07T12:50:20;10.63;;;3.90;;
56511;SDS011;42408;53.238;5.686;2023-08-07T12:52:46;9.80;;;3.07;;
56511;SDS011;42408;53.238;5.686;2023-08-07T12:55:11;7.80;;;2.70;;
56511;SDS011;42408;53.238;5.686;2023-08-07T12:57:40;7.93;;;2.97;;
56511;SDS011;42408;53.238;5.686;2023-08-07T13:00:09;6.53;;;2.65;;
56511;SDS011;42408;53.238;5.686;2023-08-07T13:02:42;8.07;;;3.33;;
56511;SDS011;42408;53.238;5.686;2023-08-07T13:05:12;8.52;;;2.85;;
56511;SDS011;42408;53.238;5.686;2023-08-07T13:07:39;9.90;;;2.70;;
56511;SDS011;42408;53.238;5.686;2023-08-07T13:10:06;10.00;;;3.00;;
56511;SDS011;42408;53.238;5.686;2023-08-07T13:12:36;9.00;;;3.05;;
56511;SDS011;42408;53.238;5.686;2023-08-07T13:15:03;10.90;;;3.67;;
56511;SDS011;42408;53.238;5.686;2023-08-07T13:17:30;9.07;;;2.85;;
56511;SDS011;42408;53.238;5.686;2023-08-07T13:19:57;5.90;;;2.80;;
56511;SDS011;42408;53.238;5.686;2023-08-07T13:22:24;7.72;;;2.63;;
56511;SDS011;42408;53.238;5.686;2023-08-07T13:24:49;5.70;;;2.63;;
56511;SDS011;42408;53.238;5.686;2023-08-07T13:27:15;8.60;;;2.93;;
56511;SDS011;42408;53.238;5.686;2023-08-07T13:29:41;8.17;;;3.30;;
56511;SDS011;42408;53.238;5.686;2023-08-07T13:32:07;9.77;;;2.60;;
56511;SDS011;42408;53.238;5.686;2023-08-07T13:34:36;7.75;;;2.58;;
56511;SDS011;42408;53.238;5.686;2023-08-07T13:37:02;7.03;;;3.30;;
56511;SDS011;42408;53.238;5.686;2023-08-07T13:39:31;7.88;;;2.92;;
56511;SDS011;42408;53.238;5.686;2023-08-07T13:41:57;9.03;;;2.63;;
56511;SDS011;42408;53.238;5.686;2023-08-07T13:44:24;8.55;;;2.88;;
56511;SDS011;42408;53.238;5.686;2023-08-07T13:46:50;7.85;;;2.50;;
56511;SDS011;42408;53.238;5.686;2023-08-07T13:49:16;6.60;;;2.42;;
56511;SDS011;42408;53.238;5.686;2023-08-07T13:51:42;6.00;;;2.30;;
56511;SDS011;42408;53.238;5.686;2023-08-07T13:54:08;5.22;;;2.20;;
56511;SDS011;42408;53.238;5.686;2023-08-07T13:56:34;7.32;;;2.40;;
56511;SDS011;42408;53.238;5.686;2023-08-07T13:59:00;6.47;;;2.17;;
56511;SDS011;42408;53.238;5.686;2023-08-07T14:01:26;8.03;;;2.20;;
56511;SDS011;42408;53.238;5.686;2023-08-07T14:03:53;5.82;;;2.42;;
56511;SDS011;42408;53.238;5.686;2023-08-07T14:06:19;8.38;;;2.75;;
56511;SDS011;42408;53.238;5.686;2023-08-07T14:08:45;7.70;;;2.42;;
56511;SDS011;42408;53.238;5.686;2023-08-07T14:11:11;6.55;;;2.33;;
56511;SDS011;42408;53.238;5.686;2023-08-07T14:13:39;6.40;;;2.47;;
56511;SDS011;42408;53.238;5.686;2023-08-07T14:16:04;24.42;;;4.60;;
56511;SDS011;42408;53.238;5.686;2023-08-07T14:18:30;8.38;;;2.22;;
56511;SDS011;42408;53.238;5.686;2023-08-07T14:20:56;8.15;;;2.53;;
56511;SDS011;42408;53.238;5.686;2023-08-07T14:23:22;12.77;;;2.53;;
56511;SDS011;42408;53.238;5.686;2023-08-07T14:25:47;6.30;;;1.90;;
56511;SDS011;42408;53.238;5.686;2023-08-07T14:28:19;6.78;;;2.03;;
56511;SDS011;42408;53.238;5.686;2023-08-07T14:30:45;10.07;;;2.30;;
56511;SDS011;42408;53.238;5.686;2023-08-07T14:33:10;8.57;;;2.70;;
56511;SDS011;42408;53.238;5.686;2023-08-07T14:35:36;8.80;;;2.40;;
56511;SDS011;42408;53.238;5.686;2023-08-07T14:38:01;8.70;;;2.53;;
56511;SDS011;42408;53.238;5.686;2023-08-07T14:40:27;6.93;;;2.10;;
56511;SDS011;42408;53.238;5.686;2023-08-07T14:42:53;7.73;;;1.97;;
56511;SDS011;42408;53.238;5.686;2023-08-07T14:45:20;6.28;;;2.03;;
56511;SDS011;42408;53.238;5.686;2023-08-07T14:47:48;7.25;;;2.10;;
56511;SDS011;42408;53.238;5.686;2023-08-07T14:50:13;8.90;;;2.40;;
56511;SDS011;42408;53.238;5.686;2023-08-07T14:52:41;6.97;;;2.45;;
56511;SDS011;42408;53.238;5.686;2023-08-07T14:55:07;7.40;;;2.53;;
56511;SDS011;42408;53.238;5.686;2023-08-07T14:57:33;7.32;;;1.98;;
56511;SDS011;42408;53.238;5.686;2023-08-07T14:59:59;7.33;;;2.13;;
56511;SDS011;42408;53.238;5.686;2023-08-07T15:02:24;5.73;;;2.07;;
56511;SDS011;42408;53.238;5.686;2023-08-07T15:04:50;7.47;;;2.13;;
56511;SDS011;42408;53.238;5.686;2023-08-07T15:07:16;11.48;;;2.30;;
56511;SDS011;42408;53.238;5.686;2023-08-07T15:09:42;7.80;;;2.10;;
56511;SDS011;42408;53.238;5.686;2023-08-07T15:12:08;7.67;;;2.53;;
56511;SDS011;42408;53.238;5.686;2023-08-07T15:14:34;6.55;;;2.47;;